createdAt,value
2018-07-11T00:01:20.897Z,22.67
2018-07-11T00:03:53.161Z,25.50
2018-07-11T00:06:23.181Z,25.57
2018-07-11T00:08:52.051Z,24.97
2018-07-11T00:11:21.686Z,26.93
2018-07-11T00:13:50.506Z,24.43
2018-07-11T00:16:19.255Z,22.10
2018-07-11T00:18:48.101Z,22.33
2018-07-11T00:21:16.955Z,24.13
2018-07-11T00:23:45.834Z,21.63
2018-07-11T00:26:14.636Z,25.00
2018-07-11T00:28:43.398Z,26.63
2018-07-11T00:31:12.234Z,24.17
2018-07-11T00:33:41.380Z,24.40
2018-07-11T00:36:10.300Z,28.17
2018-07-11T00:38:39.373Z,23.93
2018-07-11T00:41:08.250Z,22.93
2018-07-11T00:43:37.124Z,23.07
2018-07-11T00:46:06.257Z,24.60
2018-07-11T00:48:35.701Z,23.97
2018-07-11T00:51:04.947Z,23.10
2018-07-11T00:53:34.934Z,22.07
2018-07-11T00:56:04.182Z,22.70
2018-07-11T00:58:35.990Z,29.10
2018-07-11T01:01:12.318Z,24.37
2018-07-11T01:03:57.374Z,25.70
2018-07-11T01:06:26.285Z,23.77
2018-07-11T01:08:56.727Z,25.80
2018-07-11T01:11:26.118Z,24.57
2018-07-11T01:13:55.104Z,27.87
2018-07-11T01:16:24.429Z,25.70
2018-07-11T01:18:59.963Z,25.83
2018-07-11T01:21:29.411Z,21.80
2018-07-11T01:23:59.055Z,27.13
2018-07-11T01:26:31.518Z,24.30
2018-07-11T01:29:00.818Z,29.07
2018-07-11T01:31:29.764Z,21.93
2018-07-11T01:33:59.137Z,24.07
2018-07-11T01:36:28.439Z,24.80
2018-07-11T01:38:58.104Z,23.40
2018-07-11T01:41:26.995Z,22.93
2018-07-11T01:43:55.966Z,24.27
2018-07-11T01:46:25.335Z,23.10
2018-07-11T01:48:54.224Z,22.00
2018-07-11T01:51:33.095Z,23.10
2018-07-11T01:54:02.088Z,28.30
2018-07-11T01:56:31.016Z,20.87
2018-07-11T01:58:59.994Z,22.03
2018-07-11T02:01:28.964Z,20.83
2018-07-11T02:03:57.947Z,22.87
2018-07-11T02:06:26.911Z,21.40
2018-07-11T02:08:55.892Z,26.03
2018-07-11T02:11:24.908Z,24.03
2018-07-11T02:13:53.938Z,19.40
2018-07-11T02:16:23.196Z,22.07
2018-07-11T02:18:52.139Z,23.30
2018-07-11T02:21:21.118Z,23.47
2018-07-11T02:23:50.083Z,20.97
2018-07-11T02:26:19.065Z,18.03
2018-07-11T02:28:48.279Z,19.13
2018-07-11T02:31:17.239Z,19.27
2018-07-11T02:33:46.139Z,18.17
2018-07-11T02:36:15.083Z,23.80
2018-07-11T02:38:43.973Z,18.03
2018-07-11T02:41:12.907Z,20.07
2018-07-11T02:43:41.820Z,19.87
2018-07-11T02:46:10.744Z,20.20
2018-07-11T02:48:39.700Z,20.53
2018-07-11T02:51:08.603Z,21.50
2018-07-11T02:53:37.532Z,20.90
2018-07-11T02:56:06.589Z,20.90
2018-07-11T02:58:35.430Z,18.53
2018-07-11T03:01:04.395Z,18.63
2018-07-11T03:03:33.360Z,17.80
2018-07-11T03:06:02.227Z,20.30
2018-07-11T03:08:36.952Z,16.87
2018-07-11T03:11:06.536Z,17.57
2018-07-11T03:13:35.619Z,18.73
2018-07-11T03:16:04.514Z,22.40
2018-07-11T03:18:33.462Z,23.53
2018-07-11T03:21:02.330Z,28.40
2018-07-11T03:23:31.249Z,18.73
2018-07-11T03:26:00.192Z,24.00
2018-07-11T03:28:29.195Z,22.17
2018-07-11T03:30:58.083Z,20.97
2018-07-11T03:33:26.930Z,19.50
2018-07-11T03:35:55.851Z,22.00
2018-07-11T03:38:25.080Z,22.83
2018-07-11T03:40:53.972Z,22.93
2018-07-11T03:43:22.890Z,23.60
2018-07-11T03:45:51.727Z,23.10
2018-07-11T03:48:20.615Z,22.63
2018-07-11T03:50:49.823Z,24.03
2018-07-11T03:53:18.699Z,21.83
2018-07-11T03:55:47.630Z,22.47
2018-07-11T03:58:16.459Z,27.97
2018-07-11T04:00:45.355Z,28.00
2018-07-11T04:03:14.220Z,26.93
2018-07-11T04:05:43.066Z,28.73
2018-07-11T04:08:11.891Z,31.77
2018-07-11T04:10:40.796Z,28.00
2018-07-11T04:13:16.102Z,25.50
2018-07-11T04:15:44.988Z,27.00
2018-07-11T04:18:19.047Z,31.00
2018-07-11T04:20:48.035Z,31.67
2018-07-11T04:23:16.952Z,39.40
2018-07-11T04:25:45.835Z,29.07
2018-07-11T04:28:14.754Z,32.40
2018-07-11T04:30:44.344Z,31.03
2018-07-11T04:33:13.402Z,38.00
2018-07-11T04:35:42.828Z,36.47
2018-07-11T04:38:11.889Z,36.67
2018-07-11T04:40:40.953Z,36.70
2018-07-11T04:43:09.946Z,29.20
2018-07-11T04:45:38.921Z,32.23
2018-07-11T04:48:08.460Z,33.40
2018-07-11T04:50:37.664Z,34.57
2018-07-11T04:53:08.655Z,33.13
2018-07-11T04:55:37.715Z,40.80
2018-07-11T04:58:06.581Z,33.27
2018-07-11T05:00:35.540Z,35.13
2018-07-11T05:03:04.720Z,34.73
2018-07-11T05:05:33.815Z,34.70
2018-07-11T05:08:02.719Z,28.50
2018-07-11T05:10:31.571Z,26.37
2018-07-11T05:13:00.373Z,30.93
2018-07-11T05:15:29.399Z,27.57
2018-07-11T05:17:58.219Z,25.00
2018-07-11T05:20:27.039Z,24.90
2018-07-11T05:22:55.952Z,28.67
2018-07-11T05:25:24.811Z,26.90
2018-07-11T05:27:53.613Z,24.73
2018-07-11T05:30:22.527Z,26.33
2018-07-11T05:32:51.352Z,25.33
2018-07-11T05:35:20.189Z,24.47
2018-07-11T05:37:49.042Z,24.70
2018-07-11T05:40:18.043Z,25.53
2018-07-11T05:42:46.938Z,25.13
2018-07-11T05:45:15.815Z,24.30
2018-07-11T05:47:45.199Z,26.50
2018-07-11T05:50:14.048Z,30.70
2018-07-11T05:52:42.955Z,30.43
2018-07-11T05:55:11.797Z,31.23
2018-07-11T05:57:40.631Z,31.97
2018-07-11T06:00:09.555Z,28.63
2018-07-11T06:02:38.472Z,26.17
2018-07-11T06:05:07.648Z,28.77
2018-07-11T06:07:36.492Z,27.10
2018-07-11T06:10:05.396Z,31.67
2018-07-11T06:12:34.235Z,29.00
2018-07-11T06:15:03.140Z,26.83
2018-07-11T06:17:32.596Z,30.97
2018-07-11T06:20:01.448Z,28.10
2018-07-11T06:22:30.347Z,30.93
2018-07-11T06:24:59.168Z,34.77
2018-07-11T06:27:28.720Z,27.53
2018-07-11T06:29:57.983Z,29.93
2018-07-11T06:32:27.989Z,39.37
2018-07-11T06:34:56.831Z,34.17
2018-07-11T06:37:25.661Z,31.20
2018-07-11T06:39:54.515Z,31.77
2018-07-11T06:42:23.346Z,28.40
2018-07-11T06:44:52.192Z,31.63
2018-07-11T06:47:21.085Z,30.87
2018-07-11T06:49:50.072Z,34.07
2018-07-11T06:52:19.830Z,27.20
2018-07-11T06:54:48.644Z,28.90
2018-07-11T06:57:17.524Z,30.87
2018-07-11T06:59:46.475Z,28.43
2018-07-11T07:02:15.332Z,31.20
2018-07-11T07:04:44.351Z,29.33
2018-07-11T07:07:14.339Z,29.70
2018-07-11T07:09:43.243Z,26.17
2018-07-11T07:12:12.164Z,23.23
2018-07-11T07:14:41.100Z,22.10
2018-07-11T07:17:09.975Z,25.57
2018-07-11T07:19:38.892Z,22.23
2018-07-11T07:22:07.858Z,20.97
2018-07-11T07:24:36.800Z,19.20
2018-07-11T07:27:05.924Z,21.00
2018-07-11T07:29:34.889Z,20.17
2018-07-11T07:32:03.942Z,21.10
2018-07-11T07:34:33.175Z,20.90
2018-07-11T07:37:02.126Z,21.47
2018-07-11T07:39:31.214Z,17.83
2018-07-11T07:42:01.523Z,15.27
2018-07-11T07:44:30.469Z,19.17
2018-07-11T07:47:01.645Z,21.73
2018-07-11T07:49:32.361Z,17.70
2018-07-11T07:52:01.825Z,16.97
2018-07-11T07:54:30.725Z,16.73
2018-07-11T07:56:59.695Z,21.00
2018-07-11T07:59:28.645Z,15.93
2018-07-11T08:01:57.567Z,16.30
2018-07-11T08:04:26.544Z,16.10
2018-07-11T08:06:55.995Z,17.97
2018-07-11T08:09:24.829Z,17.53
2018-07-11T08:11:53.742Z,19.77
2018-07-11T08:14:22.590Z,17.00
2018-07-11T08:16:51.448Z,16.10
2018-07-11T08:19:20.417Z,17.90
2018-07-11T08:21:49.328Z,14.10
2018-07-11T08:25:28.880Z,15.00
2018-07-11T08:28:06.941Z,15.13
2018-07-11T08:31:19.089Z,15.03
2018-07-11T08:33:58.977Z,14.23
2018-07-11T08:36:38.863Z,14.90
2018-07-11T08:39:17.456Z,16.53
2018-07-11T08:41:57.581Z,14.07
2018-07-11T08:44:57.190Z,13.00
2018-07-11T08:48:06.909Z,12.83
2018-07-11T08:51:44.311Z,13.87
2018-07-11T08:54:31.570Z,13.23
2018-07-11T08:57:22.642Z,14.30
2018-07-11T09:02:11.094Z,14.30
2018-07-11T09:05:21.656Z,15.07
2018-07-11T09:08:04.843Z,13.37
2018-07-11T09:10:56.933Z,13.17
2018-07-11T09:13:36.971Z,14.20
2018-07-11T09:16:13.240Z,13.23
2018-07-11T09:21:59.806Z,14.97
2018-07-11T09:24:38.713Z,15.77
2018-07-11T09:27:07.622Z,15.00
2018-07-11T09:29:36.608Z,13.60
2018-07-11T09:32:05.478Z,14.07
2018-07-11T09:34:34.263Z,14.10
2018-07-11T09:37:03.161Z,14.37
2018-07-11T09:39:32.150Z,15.63
2018-07-11T09:42:01.254Z,14.23
2018-07-11T09:44:30.138Z,15.27
2018-07-11T09:46:59.309Z,14.07
2018-07-11T09:49:28.460Z,14.47
2018-07-11T09:51:57.299Z,15.23
2018-07-11T09:54:26.154Z,14.63
2018-07-11T09:56:55.075Z,13.60
2018-07-11T09:59:24.051Z,12.77
2018-07-11T10:01:52.938Z,14.37
2018-07-11T10:04:21.899Z,12.97
2018-07-11T10:06:51.110Z,13.90
2018-07-11T10:09:20.051Z,13.07
2018-07-11T10:11:48.922Z,12.63
2018-07-11T10:14:17.920Z,15.03
2018-07-11T10:16:46.741Z,12.60
2018-07-11T10:19:15.586Z,12.17
2018-07-11T10:21:44.453Z,12.17
2018-07-11T10:24:13.506Z,12.43
2018-07-11T10:26:42.366Z,11.50
2018-07-11T10:29:11.167Z,11.13
2018-07-11T10:31:40.013Z,11.23
2018-07-11T10:34:08.862Z,10.83
2018-07-11T10:36:37.663Z,9.23
2018-07-11T10:39:06.884Z,11.00
2018-07-11T10:41:35.878Z,10.43
2018-07-11T10:44:04.730Z,10.17
2018-07-11T10:46:33.619Z,10.30
2018-07-11T10:49:02.450Z,10.30
2018-07-11T10:51:31.265Z,9.90
2018-07-11T10:54:00.107Z,9.27
2018-07-11T10:56:28.971Z,10.53
2018-07-11T10:58:58.086Z,9.53
2018-07-11T11:01:26.850Z,10.53
2018-07-11T11:03:55.654Z,9.57
2018-07-11T11:06:24.470Z,9.97
2018-07-11T11:08:53.621Z,11.27
2018-07-11T11:11:22.471Z,9.90
2018-07-11T11:13:51.275Z,9.80
2018-07-11T11:16:20.456Z,10.93
2018-07-11T11:18:49.598Z,8.83
2018-07-11T11:21:18.571Z,9.00
2018-07-11T11:23:47.435Z,8.97
2018-07-11T11:26:16.218Z,9.87
2018-07-11T11:28:45.381Z,9.97
2018-07-11T11:31:14.202Z,8.23
2018-07-11T11:33:43.162Z,8.83
2018-07-11T11:36:11.954Z,7.80
2018-07-11T11:38:40.738Z,9.73
2018-07-11T11:41:09.651Z,7.80
2018-07-11T11:43:38.506Z,8.73
2018-07-11T11:46:07.666Z,8.70
2018-07-11T11:48:36.593Z,7.93
2018-07-11T11:51:05.443Z,7.57
2018-07-11T11:53:34.464Z,7.03
2018-07-11T11:56:03.307Z,9.23
2018-07-11T11:58:32.537Z,7.03
2018-07-11T12:01:01.554Z,7.27
2018-07-11T12:03:30.387Z,7.57
2018-07-11T12:05:59.138Z,7.20
2018-07-11T12:08:27.942Z,8.33
2018-07-11T12:10:56.739Z,7.67
2018-07-11T12:13:25.601Z,7.47
2018-07-11T12:15:54.382Z,7.47
2018-07-11T12:18:24.090Z,7.37
2018-07-11T12:20:53.811Z,7.33
2018-07-11T12:23:22.772Z,6.97
2018-07-11T12:26:01.818Z,7.70
2018-07-11T12:28:30.688Z,7.40
2018-07-11T12:30:59.594Z,6.93
2018-07-11T12:33:28.551Z,6.70
2018-07-11T12:35:57.668Z,6.77
2018-07-11T12:38:26.883Z,7.27
2018-07-11T12:40:55.683Z,6.40
2018-07-11T12:43:25.219Z,6.60
2018-07-11T12:45:54.279Z,6.57
2018-07-11T12:48:29.383Z,6.87
2018-07-11T12:50:58.506Z,6.50
2018-07-11T12:53:27.715Z,6.43
2018-07-11T12:55:56.609Z,5.83
2018-07-11T12:58:25.859Z,6.40
2018-07-11T13:00:55.327Z,6.30
2018-07-11T13:03:24.339Z,5.93
2018-07-11T13:05:53.219Z,6.80
2018-07-11T13:10:47.946Z,6.30
2018-07-11T13:13:17.214Z,6.30
2018-07-11T13:15:46.117Z,8.90
2018-07-11T13:18:15.060Z,6.33
2018-07-11T13:20:43.936Z,5.97
2018-07-11T13:23:12.799Z,11.50
2018-07-11T13:25:41.755Z,11.13
2018-07-11T13:28:13.195Z,6.10
2018-07-11T13:30:42.088Z,7.50
2018-07-11T13:33:11.090Z,5.80
2018-07-11T13:35:39.894Z,7.00
2018-07-11T13:38:12.236Z,5.70
2018-07-11T13:40:41.514Z,5.67
2018-07-11T13:43:11.585Z,5.60
2018-07-11T13:45:41.102Z,5.33
2018-07-11T13:48:10.699Z,6.47
2018-07-11T13:50:39.553Z,5.50
2018-07-11T13:53:08.541Z,7.97
2018-07-11T13:55:37.422Z,5.17
2018-07-11T13:58:06.482Z,7.57
2018-07-11T14:00:35.348Z,15.37
2018-07-11T14:03:04.963Z,5.83
2018-07-11T14:05:33.864Z,5.43
2018-07-11T14:08:03.076Z,5.77
2018-07-11T14:10:31.962Z,5.30
2018-07-11T14:13:00.878Z,5.23
2018-07-11T14:15:29.699Z,8.27
2018-07-11T14:17:58.988Z,4.43
2018-07-11T14:20:27.892Z,3.80
2018-07-11T14:23:04.259Z,3.93
2018-07-11T14:25:35.562Z,3.60
2018-07-11T14:28:04.742Z,3.50
2018-07-11T14:30:34.973Z,3.10
2018-07-11T14:33:07.574Z,3.20
2018-07-11T14:35:36.885Z,3.03
2018-07-11T14:38:05.816Z,3.63
2018-07-11T14:40:34.786Z,3.17
2018-07-11T14:43:03.784Z,4.17
2018-07-11T14:45:34.528Z,3.63
2018-07-11T14:48:09.639Z,3.80
2018-07-11T14:50:38.563Z,6.23
2018-07-11T14:53:07.609Z,3.90
2018-07-11T14:55:36.771Z,4.63
2018-07-11T14:58:05.738Z,4.60
2018-07-11T15:00:34.688Z,4.90
2018-07-11T15:03:03.616Z,4.67
2018-07-11T15:05:32.482Z,4.20
2018-07-11T15:08:01.906Z,3.83
2018-07-11T15:10:31.604Z,4.23
2018-07-11T15:13:01.123Z,5.10
2018-07-11T15:15:30.486Z,5.60
2018-07-11T15:18:00.028Z,4.00
2018-07-11T15:20:29.254Z,4.10
2018-07-11T15:22:58.386Z,4.13
2018-07-11T15:25:27.714Z,6.83
2018-07-11T15:27:56.709Z,4.40
2018-07-11T15:30:25.654Z,4.63
2018-07-11T15:32:54.670Z,5.83
2018-07-11T15:35:23.592Z,5.27
2018-07-11T15:37:52.526Z,5.13
2018-07-11T15:40:21.422Z,5.93
2018-07-11T15:42:50.385Z,5.67
2018-07-11T15:45:19.677Z,6.30
2018-07-11T15:47:49.956Z,6.90
2018-07-11T15:50:18.856Z,5.43
2018-07-11T15:52:47.805Z,5.27
2018-07-11T15:55:16.713Z,5.40
2018-07-11T15:57:52.155Z,7.83
2018-07-11T16:00:26.891Z,7.10
2018-07-11T16:02:57.039Z,5.90
2018-07-11T16:05:29.174Z,7.23
2018-07-11T16:08:00.727Z,7.97
2018-07-11T16:10:37.050Z,6.27
2018-07-11T16:13:06.308Z,6.27
2018-07-11T16:15:35.232Z,7.60
2018-07-11T16:18:04.986Z,7.13
2018-07-11T16:20:33.935Z,7.07
2018-07-11T16:23:03.215Z,7.93
2018-07-11T16:25:32.086Z,10.13
2018-07-11T16:28:01.124Z,8.00
2018-07-11T16:30:30.006Z,8.97
2018-07-11T16:32:59.443Z,13.33
2018-07-11T16:35:29.548Z,6.20
2018-07-11T16:37:58.418Z,8.27
2018-07-11T16:40:28.038Z,5.77
2018-07-11T16:42:56.921Z,6.57
2018-07-11T16:45:26.027Z,6.87
2018-07-11T16:47:55.409Z,6.80
2018-07-11T16:50:24.728Z,7.03
2018-07-11T16:52:54.430Z,13.83
2018-07-11T16:55:23.625Z,50.13
2018-07-11T16:57:53.555Z,60.07
2018-07-11T17:00:25.159Z,49.77
2018-07-11T17:03:00.057Z,11.13
2018-07-11T17:05:33.494Z,14.17
2018-07-11T17:08:05.535Z,15.03
2018-07-11T17:10:35.635Z,22.17
2018-07-11T17:13:13.909Z,7.57
2018-07-11T17:15:48.998Z,13.70
2018-07-11T17:18:51.023Z,47.97
2018-07-11T17:21:26.098Z,31.40
2018-07-11T17:23:58.027Z,170.50
2018-07-11T17:26:27.350Z,26.83
2018-07-11T17:28:58.225Z,9.37
2018-07-11T17:31:28.287Z,19.17
2018-07-11T17:33:57.761Z,38.87
2018-07-11T17:36:28.182Z,8.60
2018-07-11T17:38:57.151Z,9.90
2018-07-11T17:41:26.453Z,7.77
2018-07-11T17:43:55.366Z,8.27
2018-07-11T17:46:24.278Z,7.40
2018-07-11T17:49:03.129Z,6.90
2018-07-11T17:51:49.393Z,8.33
2018-07-11T17:54:18.420Z,7.73
2018-07-11T17:56:53.774Z,6.80
2018-07-11T17:59:48.415Z,8.97
2018-07-11T18:02:40.131Z,6.77
2018-07-11T18:05:21.858Z,9.33
2018-07-11T18:07:52.197Z,6.40
2018-07-11T18:10:37.074Z,6.93
2018-07-11T18:14:09.021Z,10.37
2018-07-11T18:16:45.668Z,11.50
2018-07-11T18:19:28.858Z,10.83
2018-07-11T18:22:34.557Z,10.87
2018-07-11T18:25:13.310Z,14.23
2018-07-11T18:27:57.033Z,9.77
2018-07-11T18:30:34.857Z,12.80
2018-07-11T18:33:11.834Z,12.53
2018-07-11T18:35:50.386Z,12.20
2018-07-11T18:38:28.241Z,15.10
2018-07-11T18:41:03.726Z,10.00
2018-07-11T18:43:43.995Z,12.90
2018-07-11T18:46:19.243Z,15.20
2018-07-11T18:48:58.931Z,11.03
2018-07-11T18:51:36.483Z,10.80
2018-07-11T18:54:14.453Z,15.43
2018-07-11T18:57:07.532Z,17.67
2018-07-11T19:02:13.996Z,19.47
2018-07-11T19:04:54.526Z,17.47
2018-07-11T19:07:33.402Z,18.20
2018-07-11T19:10:06.604Z,16.30
2018-07-11T19:12:48.640Z,19.93
2018-07-11T19:15:29.960Z,19.27
2018-07-11T19:18:05.871Z,17.50
2018-07-11T19:22:47.058Z,14.53
2018-07-11T19:25:55.753Z,22.03
2018-07-11T19:28:57.854Z,26.17
2018-07-11T19:31:38.838Z,24.63
2018-07-11T19:34:16.517Z,23.30
2018-07-11T19:36:54.222Z,23.50
2018-07-11T19:39:34.478Z,25.60
2018-07-11T19:42:38.352Z,19.23
2018-07-11T19:45:19.394Z,21.90
2018-07-11T19:47:59.624Z,17.00
2018-07-11T19:50:38.642Z,15.37
2018-07-11T19:53:15.637Z,16.63
2018-07-11T19:55:59.779Z,15.50
2018-07-11T19:58:29.187Z,11.77
2018-07-11T20:00:58.095Z,17.00
2018-07-11T20:03:27.201Z,11.10
2018-07-11T20:05:56.334Z,12.00
2018-07-11T20:08:25.161Z,13.67
2018-07-11T20:10:54.330Z,11.83
2018-07-11T20:13:23.378Z,16.37
2018-07-11T20:15:52.243Z,15.90
2018-07-11T20:18:21.375Z,15.53
2018-07-11T20:20:50.437Z,15.67
2018-07-11T20:23:19.221Z,17.40
2018-07-11T20:25:48.091Z,15.73
2018-07-11T20:28:16.961Z,11.90
2018-07-11T20:30:45.926Z,14.50
2018-07-11T20:33:14.794Z,23.93
2018-07-11T20:35:44.505Z,22.80
2018-07-11T20:38:13.334Z,14.00
2018-07-11T20:40:42.214Z,13.13
2018-07-11T20:43:11.431Z,13.90
2018-07-11T20:45:40.662Z,16.47
2018-07-11T20:48:11.142Z,14.10
2018-07-11T20:50:39.995Z,14.40
2018-07-11T20:53:08.822Z,24.20
2018-07-11T20:55:37.605Z,16.10
2018-07-11T20:58:17.421Z,14.50
2018-07-11T21:00:57.194Z,16.70
2018-07-11T21:03:41.562Z,14.53
2018-07-11T21:06:30.123Z,12.77
2018-07-11T21:09:14.075Z,14.43
2018-07-11T21:12:53.513Z,17.67
2018-07-11T21:16:03.482Z,17.07
2018-07-11T21:19:12.410Z,19.67
2018-07-11T21:21:42.346Z,18.70
2018-07-11T21:24:12.080Z,19.07
2018-07-11T21:26:41.056Z,19.63
2018-07-11T21:29:10.333Z,20.90
2018-07-11T21:31:39.489Z,13.77
2018-07-11T21:34:08.834Z,13.90
2018-07-11T21:36:37.659Z,21.17
2018-07-11T21:39:07.370Z,24.03
2018-07-11T21:41:36.190Z,21.27
2018-07-11T21:44:05.132Z,18.97
2018-07-11T21:46:34.010Z,14.87
2018-07-11T21:49:02.788Z,18.43
2018-07-11T21:51:31.728Z,16.07
2018-07-11T21:54:00.670Z,16.43
2018-07-11T21:56:29.430Z,23.43
2018-07-11T21:58:58.213Z,22.73
2018-07-11T22:01:27.100Z,15.23
2018-07-11T22:03:55.918Z,17.47
2018-07-11T22:06:24.715Z,14.97
2018-07-11T22:08:53.529Z,16.13
2018-07-11T22:11:22.964Z,13.17
2018-07-11T22:13:51.980Z,14.43
2018-07-11T22:16:20.787Z,13.53
2018-07-11T22:18:49.706Z,14.63
2018-07-11T22:21:17.218Z,17.63
2018-07-11T22:23:44.712Z,25.20
2018-07-11T22:26:12.223Z,15.83
2018-07-11T22:28:39.693Z,24.63
2018-07-11T22:31:07.169Z,17.70
2018-07-11T22:33:34.633Z,19.60
2018-07-11T22:36:02.265Z,25.83
2018-07-11T22:38:29.892Z,14.83
2018-07-11T22:40:57.353Z,27.20
2018-07-11T22:43:24.811Z,20.17
2018-07-11T22:45:52.293Z,23.63
2018-07-11T22:48:19.775Z,19.97
2018-07-11T22:50:47.260Z,24.77
2018-07-11T22:53:14.730Z,19.90
2018-07-11T22:55:42.238Z,16.70
2018-07-11T22:58:09.718Z,27.10
2018-07-11T23:00:37.196Z,21.70
2018-07-11T23:03:04.653Z,21.83
2018-07-11T23:05:32.112Z,20.43
2018-07-11T23:07:59.573Z,16.83
2018-07-11T23:10:29.431Z,21.07
2018-07-11T23:12:56.897Z,19.73
2018-07-11T23:15:24.391Z,23.77
2018-07-11T23:17:51.858Z,18.77
2018-07-11T23:20:19.321Z,23.07
2018-07-11T23:22:46.828Z,22.43
2018-07-11T23:25:14.290Z,16.43
2018-07-11T23:27:41.765Z,15.93
2018-07-11T23:30:09.212Z,17.20
2018-07-11T23:32:36.706Z,15.97
2018-07-11T23:35:04.170Z,18.43
2018-07-11T23:37:31.649Z,19.37
2018-07-11T23:39:59.170Z,21.53
2018-07-11T23:42:26.641Z,18.60
2018-07-11T23:44:54.114Z,16.40
2018-07-11T23:47:21.566Z,21.90
2018-07-11T23:49:49.078Z,16.17
2018-07-11T23:52:16.526Z,19.30
2018-07-11T23:54:43.999Z,19.87
2018-07-11T23:57:11.447Z,19.40
2018-07-11T23:59:38.901Z,10.27
